createdAt,value
2022-07-26T00:02:21.556Z,21.76
2022-07-26T00:04:48.012Z,21.65
2022-07-26T00:07:14.468Z,21.70
2022-07-26T00:09:44.957Z,21.74
2022-07-26T00:12:14.357Z,21.72
2022-07-26T00:14:40.834Z,21.77
2022-07-26T00:17:07.597Z,21.41
2022-07-26T00:19:34.064Z,21.49
2022-07-26T00:22:19.011Z,21.49
2022-07-26T00:24:45.477Z,21.51
2022-07-26T00:27:11.947Z,21.63
2022-07-26T00:29:38.333Z,21.59
2022-07-26T00:32:05.182Z,21.69
2022-07-26T00:34:31.726Z,21.74
2022-07-26T00:36:58.190Z,21.88
2022-07-26T00:39:24.692Z,22.01
2022-07-26T00:41:51.360Z,21.93
2022-07-26T00:44:17.861Z,22.02
2022-07-26T00:46:44.756Z,21.90
2022-07-26T00:49:12.999Z,22.06
2022-07-26T00:51:39.944Z,22.06
2022-07-26T00:54:08.070Z,22.02
2022-07-26T00:56:34.733Z,22.01
2022-07-26T00:59:01.765Z,21.31
2022-07-26T01:01:28.351Z,20.97
2022-07-26T01:03:54.955Z,20.90
2022-07-26T01:06:27.115Z,20.94
2022-07-26T01:08:54.360Z,21.22
2022-07-26T01:11:20.841Z,21.24
2022-07-26T01:13:48.581Z,21.32
2022-07-26T01:16:15.209Z,21.39
2022-07-26T01:18:41.788Z,21.33
2022-07-26T01:21:13.609Z,21.26
2022-07-26T01:23:41.489Z,21.05
2022-07-26T01:26:08.617Z,21.08
2022-07-26T01:28:39.569Z,21.24
2022-07-26T01:31:07.083Z,21.25
2022-07-26T01:33:34.809Z,21.28
2022-07-26T01:36:01.647Z,21.30
2022-07-26T01:38:28.457Z,21.38
2022-07-26T01:40:54.936Z,21.46
2022-07-26T01:43:21.394Z,21.54
2022-07-26T01:45:48.112Z,21.41
2022-07-26T01:48:14.893Z,21.51
2022-07-26T01:50:41.316Z,21.51
2022-07-26T01:53:07.798Z,21.48
2022-07-26T01:55:35.608Z,21.63
2022-07-26T01:58:02.990Z,21.59
2022-07-26T02:00:29.602Z,21.54
2022-07-26T02:02:56.176Z,21.66
2022-07-26T02:05:22.704Z,21.56
2022-07-26T02:07:49.447Z,21.39
2022-07-26T02:10:17.468Z,21.12
2022-07-26T02:12:44.413Z,21.26
2022-07-26T02:15:14.225Z,21.19
2022-07-26T02:17:41.241Z,20.95
2022-07-26T02:20:09.085Z,21.03
2022-07-26T02:22:36.101Z,21.14
2022-07-26T02:25:05.314Z,21.18
2022-07-26T02:27:32.721Z,21.23
2022-07-26T02:29:59.294Z,21.27
2022-07-26T02:32:25.839Z,21.22
2022-07-26T02:34:52.275Z,21.28
2022-07-26T02:37:18.701Z,21.22
2022-07-26T02:39:45.131Z,21.14
2022-07-26T02:42:11.581Z,21.26
2022-07-26T02:44:38.140Z,21.04
2022-07-26T02:47:04.731Z,21.00
2022-07-26T02:49:31.142Z,20.97
2022-07-26T02:51:57.642Z,21.05
2022-07-26T02:54:24.163Z,21.32
2022-07-26T02:56:50.588Z,21.53
2022-07-26T02:59:17.015Z,21.52
2022-07-26T03:01:43.558Z,21.53
2022-07-26T03:04:10.436Z,21.47
2022-07-26T03:06:37.372Z,21.51
2022-07-26T03:09:04.664Z,21.51
2022-07-26T03:11:31.123Z,21.62
2022-07-26T03:13:57.648Z,21.43
2022-07-26T03:16:29.033Z,21.44
2022-07-26T03:18:56.451Z,21.28
2022-07-26T03:21:23.223Z,21.24
2022-07-26T03:23:49.675Z,21.33
2022-07-26T03:26:16.176Z,21.27
2022-07-26T03:28:44.707Z,21.09
2022-07-26T03:31:12.903Z,21.07
2022-07-26T03:33:40.518Z,21.03
2022-07-26T03:36:11.246Z,21.06
2022-07-26T03:38:38.193Z,21.02
2022-07-26T03:41:05.508Z,20.95
2022-07-26T03:43:32.005Z,21.01
2022-07-26T03:46:03.022Z,21.20
2022-07-26T03:48:30.794Z,20.83
2022-07-26T03:50:57.355Z,20.63
2022-07-26T03:53:24.095Z,20.61
2022-07-26T03:56:09.975Z,20.62
2022-07-26T03:58:36.378Z,20.55
2022-07-26T04:01:04.140Z,20.81
2022-07-26T04:03:30.676Z,20.50
2022-07-26T04:05:57.608Z,20.57
2022-07-26T04:08:24.739Z,20.41
2022-07-26T04:10:51.328Z,20.44
2022-07-26T04:13:19.053Z,20.62
2022-07-26T04:15:45.767Z,20.38
2022-07-26T04:18:14.098Z,20.33
2022-07-26T04:20:40.887Z,20.53
2022-07-26T04:23:11.630Z,20.62
2022-07-26T04:25:41.087Z,20.67
2022-07-26T04:28:08.525Z,20.61
2022-07-26T04:30:35.020Z,20.84
2022-07-26T04:33:01.548Z,21.13
2022-07-26T04:35:28.415Z,20.77
2022-07-26T04:37:55.138Z,20.85
2022-07-26T04:40:23.741Z,21.60
2022-07-26T04:42:51.561Z,21.44
2022-07-26T04:45:18.565Z,21.21
2022-07-26T04:47:49.617Z,20.80
2022-07-26T04:50:16.659Z,21.02
2022-07-26T04:52:43.306Z,21.85
2022-07-26T04:55:10.665Z,22.67
2022-07-26T04:57:37.265Z,23.51
2022-07-26T05:00:21.400Z,23.61
2022-07-26T05:02:50.168Z,24.15
2022-07-26T05:05:16.663Z,24.77
2022-07-26T05:07:45.438Z,24.64
2022-07-26T05:10:12.821Z,24.64
2022-07-26T05:12:39.529Z,24.54
2022-07-26T05:15:07.204Z,24.75
2022-07-26T05:17:41.598Z,24.30
2022-07-26T05:20:09.675Z,24.37
2022-07-26T05:22:36.799Z,24.67
2022-07-26T05:25:04.880Z,24.73
2022-07-26T05:27:31.622Z,24.96
2022-07-26T05:29:58.541Z,25.06
2022-07-26T05:32:25.061Z,24.81
2022-07-26T05:34:51.493Z,24.57
2022-07-26T05:37:17.921Z,25.32
2022-07-26T05:39:44.317Z,25.01
2022-07-26T05:42:10.741Z,24.57
2022-07-26T05:44:37.200Z,25.35
2022-07-26T05:47:09.554Z,25.19
2022-07-26T05:49:40.365Z,25.01
2022-07-26T05:52:08.225Z,24.90
2022-07-26T05:54:34.868Z,24.56
2022-07-26T05:57:01.348Z,24.75
2022-07-26T05:59:28.481Z,24.64
2022-07-26T06:01:56.525Z,24.92
2022-07-26T06:04:25.907Z,25.28
2022-07-26T06:06:54.462Z,25.33
2022-07-26T06:09:21.617Z,25.29
2022-07-26T06:11:48.065Z,25.52
2022-07-26T06:14:14.966Z,25.11
2022-07-26T06:16:41.643Z,25.17
2022-07-26T06:19:08.181Z,25.30
2022-07-26T06:21:34.637Z,25.16
2022-07-26T06:24:01.100Z,25.38
2022-07-26T06:26:27.509Z,25.33
2022-07-26T06:28:53.979Z,25.69
2022-07-26T06:31:20.540Z,25.82
2022-07-26T06:33:47.573Z,25.59
2022-07-26T06:36:14.033Z,25.24
2022-07-26T06:38:40.520Z,25.35
2022-07-26T06:41:07.038Z,25.27
2022-07-26T06:43:33.546Z,25.63
2022-07-26T06:46:00.090Z,25.82
2022-07-26T06:48:26.779Z,25.81
2022-07-26T06:50:53.255Z,25.14
2022-07-26T06:53:19.696Z,25.22
2022-07-26T06:55:46.129Z,25.44
2022-07-26T06:58:12.674Z,25.32
2022-07-26T07:00:39.169Z,25.40
2022-07-26T07:03:05.662Z,25.48
2022-07-26T07:05:32.959Z,25.34
2022-07-26T07:07:59.522Z,25.40
2022-07-26T07:10:26.383Z,26.10
2022-07-26T07:12:52.852Z,26.29
2022-07-26T07:15:19.291Z,25.62
2022-07-26T07:17:45.735Z,25.47
2022-07-26T07:20:12.483Z,25.62
2022-07-26T07:22:38.973Z,25.54
2022-07-26T07:25:06.099Z,25.89
2022-07-26T07:27:33.102Z,25.66
2022-07-26T07:30:00.044Z,25.40
2022-07-26T07:32:26.587Z,25.76
2022-07-26T07:34:55.014Z,26.06
2022-07-26T07:37:21.550Z,26.17
2022-07-26T07:39:50.715Z,25.67
2022-07-26T07:42:19.176Z,25.89
2022-07-26T07:44:46.228Z,25.90
2022-07-26T07:47:12.727Z,26.27
2022-07-26T07:49:39.179Z,25.86
2022-07-26T07:52:06.188Z,25.67
2022-07-26T07:54:32.666Z,25.61
2022-07-26T07:56:59.121Z,26.01
2022-07-26T07:59:25.625Z,26.64
2022-07-26T08:01:52.140Z,26.26
2022-07-26T08:04:18.896Z,26.11
2022-07-26T08:06:50.413Z,26.80
2022-07-26T08:09:18.948Z,27.09
2022-07-26T08:11:45.680Z,26.46
2022-07-26T08:14:17.749Z,26.46
2022-07-26T08:16:44.732Z,27.36
2022-07-26T08:19:11.964Z,27.36
2022-07-26T08:21:38.554Z,27.39
2022-07-26T08:24:06.668Z,26.61
2022-07-26T08:26:33.102Z,26.46
2022-07-26T08:29:00.519Z,27.10
2022-07-26T08:31:30.539Z,26.96
2022-07-26T08:33:57.250Z,26.03
2022-07-26T08:36:23.853Z,26.32
2022-07-26T08:38:50.631Z,26.17
2022-07-26T08:41:20.308Z,26.41
2022-07-26T08:43:52.233Z,26.37
2022-07-26T08:46:26.424Z,26.57
2022-07-26T08:48:55.763Z,25.88
2022-07-26T08:51:24.626Z,25.95
2022-07-26T08:54:02.221Z,26.76
2022-07-26T08:56:31.388Z,26.21
2022-07-26T08:58:57.795Z,27.01
2022-07-26T09:01:24.385Z,26.88
2022-07-26T09:03:51.016Z,26.94
2022-07-26T09:06:18.871Z,26.93
2022-07-26T09:08:47.291Z,26.70
2022-07-26T09:11:33.045Z,26.43
2022-07-26T09:14:02.803Z,26.42
2022-07-26T09:16:30.467Z,26.61
2022-07-26T09:19:21.369Z,27.27
2022-07-26T09:21:48.224Z,27.75
2022-07-26T09:24:30.519Z,28.03
2022-07-26T09:26:58.984Z,27.88
2022-07-26T09:29:25.447Z,27.65
2022-07-26T09:31:52.003Z,27.98
2022-07-26T09:34:25.509Z,27.37
2022-07-26T09:36:54.596Z,27.64
2022-07-26T09:39:22.725Z,27.71
2022-07-26T09:42:26.955Z,28.02
2022-07-26T09:44:54.803Z,27.52
2022-07-26T09:47:21.457Z,26.90
2022-07-26T09:49:48.010Z,27.14
2022-07-26T09:52:15.474Z,28.17
2022-07-26T09:54:41.966Z,28.32
2022-07-26T09:57:08.579Z,27.91
2022-07-26T09:59:35.046Z,28.25
2022-07-26T10:02:01.838Z,28.41
2022-07-26T10:04:28.370Z,29.25
2022-07-26T10:06:58.198Z,28.89
2022-07-26T10:09:25.769Z,29.19
2022-07-26T10:11:59.770Z,28.39
2022-07-26T10:14:46.477Z,28.35
2022-07-26T10:17:31.134Z,28.79
2022-07-26T10:20:02.985Z,28.78
2022-07-26T10:22:34.025Z,28.66
2022-07-26T10:25:18.675Z,28.42
2022-07-26T10:27:49.907Z,28.20
2022-07-26T10:30:16.291Z,28.33
2022-07-26T10:33:03.993Z,28.32
2022-07-26T10:35:36.537Z,28.55
2022-07-26T10:38:07.263Z,29.10
2022-07-26T10:40:37.348Z,29.31
2022-07-26T10:46:15.812Z,28.90
2022-07-26T10:49:06.341Z,29.33
2022-07-26T10:51:36.374Z,29.63
2022-07-26T10:54:10.400Z,29.04
2022-07-26T10:56:38.027Z,29.20
2022-07-26T10:59:05.879Z,29.25
2022-07-26T11:01:41.401Z,29.38
2022-07-26T11:04:21.330Z,29.68
2022-07-26T11:06:48.335Z,29.35
2022-07-26T11:09:15.018Z,28.80
2022-07-26T11:11:46.870Z,28.78
2022-07-26T11:14:16.652Z,28.61
2022-07-26T11:16:46.701Z,28.64
2022-07-26T11:19:17.213Z,29.38
2022-07-26T11:21:45.434Z,29.20
2022-07-26T11:24:12.642Z,29.64
2022-07-26T11:26:44.371Z,29.24
2022-07-26T11:29:17.069Z,29.23
2022-07-26T11:31:51.207Z,29.12
2022-07-26T11:34:27.904Z,29.54
2022-07-26T11:36:56.721Z,29.62
2022-07-26T11:39:26.289Z,29.25
2022-07-26T11:42:01.204Z,29.50
2022-07-26T11:44:28.610Z,28.89
2022-07-26T11:46:56.019Z,29.13
2022-07-26T11:49:51.702Z,29.45
2022-07-26T11:52:12.408Z,29.79
2022-07-26T11:54:49.915Z,29.37
2022-07-26T11:57:17.445Z,29.40
2022-07-26T11:59:45.262Z,29.58
2022-07-26T12:02:13.519Z,29.69
2022-07-26T12:04:42.072Z,29.43
2022-07-26T12:07:17.424Z,29.56
2022-07-26T12:09:46.549Z,29.66
2022-07-26T12:12:23.319Z,29.75
2022-07-26T12:15:04.739Z,29.72
2022-07-26T12:17:34.883Z,30.22
2022-07-26T12:20:17.613Z,29.69
2022-07-26T12:23:04.886Z,29.86
2022-07-26T12:25:31.634Z,30.13
2022-07-26T12:27:58.186Z,29.87
2022-07-26T12:30:25.539Z,29.84
2022-07-26T12:33:02.132Z,30.06
2022-07-26T12:35:35.313Z,30.20
2022-07-26T12:38:02.289Z,30.03
2022-07-26T12:40:30.890Z,30.23
2022-07-26T12:43:02.251Z,29.89
2022-07-26T12:45:30.117Z,29.76
2022-07-26T12:47:58.604Z,29.84
2022-07-26T12:50:27.519Z,29.76
2022-07-26T12:53:01.436Z,29.50
2022-07-26T12:55:28.085Z,29.94
2022-07-26T12:57:55.859Z,29.53
2022-07-26T13:00:24.270Z,29.81
2022-07-26T13:02:51.392Z,29.66
2022-07-26T13:05:19.129Z,30.28
2022-07-26T13:07:45.627Z,29.94
2022-07-26T13:12:59.180Z,30.43
2022-07-26T13:15:37.267Z,29.86
2022-07-26T13:18:06.531Z,30.40
2022-07-26T13:20:33.051Z,30.48
2022-07-26T13:22:59.463Z,30.18
2022-07-26T13:25:28.950Z,29.62
2022-07-26T13:28:03.525Z,29.55
2022-07-26T13:30:30.114Z,30.07
2022-07-26T13:32:56.538Z,30.01
2022-07-26T13:35:22.993Z,30.21
2022-07-26T13:37:49.436Z,29.76
2022-07-26T13:40:16.012Z,29.93
2022-07-26T13:42:42.587Z,29.89
2022-07-26T13:45:09.681Z,29.93
2022-07-26T13:47:36.080Z,29.51
2022-07-26T13:50:02.587Z,29.39
2022-07-26T13:52:29.141Z,29.98
2022-07-26T13:54:55.561Z,29.70
2022-07-26T13:57:21.986Z,29.53
2022-07-26T13:59:48.453Z,29.34
2022-07-26T14:02:15.308Z,28.75
2022-07-26T14:04:42.519Z,28.90
2022-07-26T14:07:08.959Z,29.49
2022-07-26T14:09:35.345Z,29.58
2022-07-26T14:12:01.775Z,30.22
2022-07-26T14:14:28.264Z,30.15
2022-07-26T14:16:54.728Z,30.61
2022-07-26T14:19:21.195Z,30.40
2022-07-26T14:21:59.496Z,30.66
2022-07-26T14:24:27.353Z,30.15
2022-07-26T14:26:58.400Z,30.62
2022-07-26T14:29:26.004Z,30.85
2022-07-26T14:31:52.611Z,30.62
2022-07-26T14:34:19.176Z,30.93
2022-07-26T14:36:45.579Z,31.24
2022-07-26T14:39:12.030Z,30.70
2022-07-26T14:41:38.501Z,31.14
2022-07-26T14:44:05.149Z,30.98
2022-07-26T14:46:31.669Z,31.06
2022-07-26T14:48:58.677Z,30.96
2022-07-26T14:51:25.550Z,30.81
2022-07-26T14:53:52.767Z,30.95
2022-07-26T14:56:19.213Z,31.05
2022-07-26T14:58:45.643Z,30.92
2022-07-26T15:01:12.363Z,30.37
2022-07-26T15:03:38.978Z,30.54
2022-07-26T15:06:05.411Z,30.70
2022-07-26T15:08:31.838Z,30.44
2022-07-26T15:10:58.271Z,30.53
2022-07-26T15:13:24.713Z,30.53
2022-07-26T15:15:51.162Z,30.42
2022-07-26T15:18:17.620Z,29.82
2022-07-26T15:20:44.090Z,29.12
2022-07-26T15:23:11.982Z,28.95
2022-07-26T15:25:38.553Z,29.01
2022-07-26T15:28:05.625Z,28.57
2022-07-26T15:30:33.427Z,28.78
2022-07-26T15:33:01.950Z,28.69
2022-07-26T15:35:29.538Z,28.55
2022-07-26T15:37:56.368Z,28.50
2022-07-26T15:40:22.826Z,28.62
2022-07-26T15:42:51.857Z,28.49
2022-07-26T15:45:19.803Z,28.40
2022-07-26T15:48:01.093Z,28.66
2022-07-26T15:50:31.051Z,28.86
2022-07-26T15:52:58.427Z,28.93
2022-07-26T15:55:24.934Z,29.10
2022-07-26T15:57:51.827Z,28.74
2022-07-26T16:00:18.507Z,28.75
2022-07-26T16:02:45.197Z,28.86
2022-07-26T16:05:11.827Z,28.51
2022-07-26T16:07:41.389Z,28.59
2022-07-26T16:10:10.259Z,28.45
2022-07-26T16:12:36.712Z,28.33
2022-07-26T16:15:03.781Z,28.39
2022-07-26T16:17:30.999Z,28.49
2022-07-26T16:19:57.529Z,28.46
2022-07-26T16:22:23.995Z,28.59
2022-07-26T16:24:50.433Z,28.44
2022-07-26T16:27:16.843Z,28.14
2022-07-26T16:29:43.370Z,28.52
2022-07-26T16:32:10.834Z,28.24
2022-07-26T16:34:37.944Z,28.19
2022-07-26T16:37:04.815Z,28.19
2022-07-26T16:39:31.466Z,28.07
2022-07-26T16:41:59.842Z,28.08
2022-07-26T16:44:29.825Z,28.13
2022-07-26T16:46:57.188Z,27.97
2022-07-26T16:49:23.680Z,28.03
2022-07-26T16:51:50.169Z,28.18
2022-07-26T16:54:16.591Z,27.99
2022-07-26T16:56:43.020Z,27.84
2022-07-26T16:59:10.669Z,27.96
2022-07-26T17:01:37.516Z,27.86
2022-07-26T17:04:04.001Z,27.94
2022-07-26T17:06:30.532Z,27.50
2022-07-26T17:08:56.957Z,27.46
2022-07-26T17:11:23.426Z,27.64
2022-07-26T17:13:50.027Z,27.45
2022-07-26T17:16:16.517Z,27.37
2022-07-26T17:18:50.998Z,27.01
2022-07-26T17:21:17.420Z,26.93
2022-07-26T17:23:43.911Z,26.79
2022-07-26T17:26:10.340Z,26.85
2022-07-26T17:28:36.753Z,26.77
2022-07-26T17:31:03.406Z,26.69
2022-07-26T17:33:29.915Z,26.42
2022-07-26T17:35:56.563Z,26.44
2022-07-26T17:38:28.743Z,26.36
2022-07-26T17:40:56.732Z,26.20
2022-07-26T17:43:23.144Z,26.17
2022-07-26T17:45:50.396Z,26.29
2022-07-26T17:48:16.883Z,26.49
2022-07-26T17:50:43.302Z,26.31
2022-07-26T17:53:09.751Z,26.16
2022-07-26T17:55:36.282Z,26.27
2022-07-26T17:58:02.790Z,26.18
2022-07-26T18:00:29.614Z,25.85
2022-07-26T18:02:57.020Z,26.20
2022-07-26T18:05:27.299Z,25.90
2022-07-26T18:07:59.252Z,25.65
2022-07-26T18:10:27.544Z,25.61
2022-07-26T18:12:54.985Z,25.46
2022-07-26T18:15:21.552Z,25.41
2022-07-26T18:17:48.036Z,25.61
2022-07-26T18:20:14.427Z,25.98
2022-07-26T18:22:40.931Z,25.99
2022-07-26T18:25:08.007Z,25.73
2022-07-26T18:27:34.549Z,25.60
2022-07-26T18:30:00.989Z,25.36
2022-07-26T18:32:27.578Z,25.39
2022-07-26T18:34:54.058Z,25.32
2022-07-26T18:37:21.038Z,25.27
2022-07-26T18:39:54.058Z,25.42
2022-07-26T18:42:23.573Z,25.38
2022-07-26T18:44:49.964Z,25.49
2022-07-26T18:47:16.334Z,25.40
2022-07-26T18:49:43.722Z,25.14
2022-07-26T18:52:10.148Z,25.27
2022-07-26T18:54:36.825Z,25.22
2022-07-26T18:57:04.751Z,25.44
2022-07-26T18:59:31.502Z,25.15
2022-07-26T19:01:59.543Z,25.13
2022-07-26T19:04:26.268Z,25.15
2022-07-26T19:06:52.822Z,25.17
2022-07-26T19:09:19.298Z,25.24
2022-07-26T19:11:46.285Z,25.20
2022-07-26T19:14:12.922Z,25.11
2022-07-26T19:16:39.843Z,24.84
2022-07-26T19:19:06.277Z,25.24
2022-07-26T19:21:32.756Z,24.89
2022-07-26T19:23:59.176Z,24.73
2022-07-26T19:26:27.492Z,24.68
2022-07-26T19:28:54.206Z,24.58
2022-07-26T19:31:21.580Z,24.36
2022-07-26T19:33:48.053Z,24.71
2022-07-26T19:36:18.123Z,24.98
2022-07-26T19:38:52.375Z,24.70
2022-07-26T19:41:19.892Z,24.97
2022-07-26T19:43:46.311Z,24.66
2022-07-26T19:46:12.787Z,24.60
2022-07-26T19:48:39.285Z,24.38
2022-07-26T19:51:05.844Z,24.42
2022-07-26T19:53:32.339Z,24.39
2022-07-26T19:55:58.789Z,24.41
2022-07-26T19:58:26.919Z,24.18
2022-07-26T20:00:53.884Z,24.11
2022-07-26T20:03:20.319Z,24.33
2022-07-26T20:05:46.929Z,24.23
2022-07-26T20:08:13.451Z,23.96
2022-07-26T20:10:39.925Z,24.20
2022-07-26T20:13:06.386Z,23.94
2022-07-26T20:15:33.068Z,23.73
2022-07-26T20:17:59.495Z,23.88
2022-07-26T20:20:26.192Z,23.90
2022-07-26T20:22:52.636Z,23.90
2022-07-26T20:25:21.600Z,23.75
2022-07-26T20:27:51.178Z,23.81
2022-07-26T20:30:17.936Z,23.88
2022-07-26T20:32:44.765Z,23.44
2022-07-26T20:35:11.181Z,23.51
2022-07-26T20:37:37.910Z,23.73
2022-07-26T20:40:05.104Z,23.71
2022-07-26T20:42:34.135Z,23.70
2022-07-26T20:45:01.171Z,23.44
2022-07-26T20:47:27.727Z,23.77
2022-07-26T20:49:55.054Z,23.62
2022-07-26T20:52:25.699Z,23.30
2022-07-26T20:54:52.132Z,23.52
2022-07-26T20:57:18.557Z,23.40
2022-07-26T20:59:44.983Z,23.23
2022-07-26T21:02:11.455Z,22.97
2022-07-26T21:04:37.936Z,23.12
2022-07-26T21:07:04.358Z,23.16
2022-07-26T21:09:31.127Z,22.96
2022-07-26T21:11:57.790Z,22.94
2022-07-26T21:14:24.306Z,22.87
2022-07-26T21:16:50.770Z,22.88
2022-07-26T21:19:17.429Z,22.64
2022-07-26T21:21:43.968Z,22.93
2022-07-26T21:24:11.473Z,22.82
2022-07-26T21:26:38.287Z,22.85
2022-07-26T21:29:05.275Z,23.04
2022-07-26T21:31:31.778Z,22.69
2022-07-26T21:33:58.819Z,22.59
2022-07-26T21:36:25.373Z,22.77
2022-07-26T21:38:51.765Z,22.63
2022-07-26T21:41:18.193Z,22.67
2022-07-26T21:43:44.605Z,22.75
2022-07-26T21:46:13.225Z,22.67
2022-07-26T21:48:40.667Z,22.67
2022-07-26T21:51:07.404Z,22.78
2022-07-26T21:53:33.894Z,22.67
2022-07-26T21:56:00.528Z,22.49
2022-07-26T21:58:28.067Z,22.57
2022-07-26T22:01:03.319Z,22.48
2022-07-26T22:03:36.168Z,22.58
2022-07-26T22:06:02.782Z,22.74
2022-07-26T22:08:29.223Z,22.66
2022-07-26T22:10:56.247Z,22.54
2022-07-26T22:13:22.735Z,22.60
2022-07-26T22:15:49.383Z,22.42
2022-07-26T22:18:16.172Z,22.75
2022-07-26T22:20:43.995Z,22.43
2022-07-26T22:23:12.709Z,22.10
2022-07-26T22:25:39.779Z,21.92
2022-07-26T22:28:08.383Z,21.69
2022-07-26T22:30:34.925Z,21.57
2022-07-26T22:33:02.948Z,21.33
2022-07-26T22:35:34.942Z,21.30
2022-07-26T22:38:05.214Z,21.05
2022-07-26T22:40:32.888Z,20.88
2022-07-26T22:42:59.948Z,20.71
2022-07-26T22:45:26.961Z,20.58
2022-07-26T22:47:56.172Z,20.51
2022-07-26T22:50:23.406Z,20.47
2022-07-26T22:52:51.438Z,20.44
2022-07-26T22:55:17.839Z,20.48
2022-07-26T22:57:45.011Z,20.57
2022-07-26T23:00:13.703Z,20.34
2022-07-26T23:02:40.413Z,20.48
2022-07-26T23:05:07.680Z,20.64
2022-07-26T23:07:35.577Z,20.93
2022-07-26T23:10:02.740Z,21.40
2022-07-26T23:12:29.395Z,21.03
2022-07-26T23:14:55.819Z,20.90
2022-07-26T23:17:22.311Z,21.00
2022-07-26T23:19:48.726Z,20.88
2022-07-26T23:22:15.176Z,20.75
2022-07-26T23:24:41.945Z,20.64
2022-07-26T23:27:10.279Z,20.65
2022-07-26T23:29:36.816Z,20.83
2022-07-26T23:32:03.346Z,20.76
2022-07-26T23:34:29.773Z,20.55
2022-07-26T23:36:56.225Z,20.56
2022-07-26T23:39:22.647Z,20.45
2022-07-26T23:41:49.052Z,20.77
2022-07-26T23:44:15.529Z,21.02
2022-07-26T23:46:42.060Z,20.67
2022-07-26T23:49:08.937Z,20.77
2022-07-26T23:51:35.576Z,21.26
2022-07-26T23:54:02.079Z,20.87
2022-07-26T23:56:28.484Z,20.66
2022-07-26T23:58:54.986Z,20.65
